Petersburg, KY (41080)

10:21 AM EDT on September 01, 2015 (GMT -0400)
Idlebrook | | Change Station
CLOSE
Current Station
Personal Weather Station
Location: Burlington, KY
Elevation: 798 ft
Nearby Weather Stations

Elev 798 ft 39.06 °N, 84.77 °W | Updated 4 seconds ago

Clear
Clear
75.9 °F
Feels Like 76 °F
N
0.0
Wind Variable Wind from NNW
Gusts 0.0 mph

Today
High -- | Low -- °F
--% Chance of Precip.
Yesterday
High -- | Low -- °F
Precip. -- in
7:07 AM 8:10 PM
Waning Gibbous, 88% visible
Pressure 30.13 in
Visibility 10.0 miles
Clouds Few 8500 ft
Heat Index 76 °F
Dew Point 72 °F
Humidity 87%
Rainfall 0.00 in
Snow Depth Not available.
UV 3 out of 12
Pollen 10.60 out of 12
Air Quality Not available.
Flu Activity Not available.
METAR KCVG 011352Z 00000KT 10SM FEW085 26/19 A3016 RMK AO2 SLP202 T02610194
Pressure 30.13 in
Visibility 10.0 miles
Clouds Few 8500 ft
Heat Index 76 °F
Dew Point 72 °F
Humidity 87%
Rainfall 0.00 in
Snow Depth Not available.
UV 3 out of 12
Pollen 10.60 out of 12
Air Quality Not available.
Flu Activity Not available.
METAR KCVG 011352Z 00000KT 10SM FEW085 26/19 A3016 RMK AO2 SLP202 T02610194

10-Day Weather Forecast

×

Almanac

Astronomy

Sep. 01, 2015 Rise Set
Actual Time
Civil Twilight
Nautical Twilight
Astronomical Twilight
Moon
Length of Visible Light
Length of Day
Tomorrow will be .
, % of the Moon is Illuminated

Today's Extremes

State Highs State Lows

Community

WunderPhotos

Upload Photos

1,851,512 photos uploaded!

WunderBlogs® & News

Nearby

Air Quality

  Air Quality AQ Index Pollutant
Not available.

Snow Depth

Station Depth Elevation

Earthquake Activity

City Distance Mag. Time & Date
Minimum magnitude displayed is 2.5.

Coastal Water Temperatures

Place Temperature

Stations

Nearby Weather Stations

Station Location Temp. Windchill Dew Point Humidity Wind Precip. Elev Updated Type